createdAt,value
2018-04-27T00:00:09.517Z,9.44
2018-04-27T00:02:37.101Z,9.43
2018-04-27T00:05:04.914Z,9.42
2018-04-27T00:07:32.471Z,9.45
2018-04-27T00:10:00.031Z,9.49
2018-04-27T00:12:27.590Z,9.52
2018-04-27T00:14:55.254Z,9.54
2018-04-27T00:17:22.828Z,9.49
2018-04-27T00:19:50.785Z,9.52
2018-04-27T00:22:18.314Z,9.46
2018-04-27T00:24:46.575Z,9.45
2018-04-27T00:27:14.106Z,9.39
2018-04-27T00:29:41.662Z,9.39
2018-04-27T00:32:09.243Z,9.45
2018-04-27T00:34:36.807Z,9.48
2018-04-27T00:37:04.420Z,9.47
2018-04-27T00:39:32.025Z,9.52
2018-04-27T00:41:59.605Z,9.54
2018-04-27T00:44:27.141Z,9.52
2018-04-27T00:46:54.731Z,9.48
2018-04-27T00:49:22.530Z,9.47
2018-04-27T00:51:50.097Z,9.33
2018-04-27T00:54:17.653Z,9.18
2018-04-27T00:56:45.207Z,9.14
2018-04-27T00:59:12.764Z,9.04
2018-04-27T01:01:40.630Z,8.80
2018-04-27T01:04:08.167Z,8.83
2018-04-27T01:06:35.726Z,8.84
2018-04-27T01:09:03.489Z,8.87
2018-04-27T01:11:31.011Z,8.88
2018-04-27T01:13:58.627Z,8.81
2018-04-27T01:16:26.139Z,8.76
2018-04-27T01:18:53.736Z,8.74
2018-04-27T01:21:21.261Z,8.72
2018-04-27T01:23:48.809Z,8.71
2018-04-27T01:26:16.393Z,8.73
2018-04-27T01:28:43.926Z,8.55
2018-04-27T01:31:11.491Z,8.60
2018-04-27T01:33:39.115Z,8.54
2018-04-27T01:36:06.634Z,8.42
2018-04-27T01:38:34.209Z,8.45
2018-04-27T01:41:01.849Z,8.31
2018-04-27T01:43:29.384Z,8.29
2018-04-27T01:45:56.923Z,8.27
2018-04-27T01:48:24.481Z,8.28
2018-04-27T01:50:52.038Z,8.30
2018-04-27T01:53:19.642Z,8.29
2018-04-27T01:55:47.578Z,8.15
2018-04-27T01:58:15.222Z,8.11
2018-04-27T02:00:42.942Z,8.13
2018-04-27T02:03:10.511Z,8.08
2018-04-27T02:05:38.045Z,8.02
2018-04-27T02:08:05.574Z,8.13
2018-04-27T02:10:33.160Z,8.09
2018-04-27T02:13:00.720Z,8.11
2018-04-27T02:15:28.277Z,8.15
2018-04-27T02:17:55.873Z,8.12
2018-04-27T02:20:23.429Z,8.04
2018-04-27T02:22:50.950Z,8.00
2018-04-27T02:25:18.504Z,7.89
2018-04-27T02:27:46.044Z,7.94
2018-04-27T02:30:13.623Z,7.95
2018-04-27T02:32:41.184Z,7.89
2018-04-27T02:35:08.691Z,7.92
2018-04-27T02:37:36.246Z,7.87
2018-04-27T02:40:03.859Z,7.89
2018-04-27T02:42:31.397Z,7.89
2018-04-27T02:44:58.959Z,7.88
2018-04-27T02:47:26.517Z,7.77
2018-04-27T02:49:54.082Z,7.72
2018-04-27T02:52:21.598Z,7.79
2018-04-27T02:54:49.219Z,7.79
2018-04-27T02:57:16.744Z,7.82
2018-04-27T02:59:44.253Z,7.86
2018-04-27T03:02:11.779Z,7.88
2018-04-27T03:04:39.339Z,7.93
2018-04-27T03:07:06.935Z,7.88
2018-04-27T03:09:34.485Z,7.84
2018-04-27T03:12:02.371Z,7.79
2018-04-27T03:14:29.918Z,7.79
2018-04-27T03:16:57.481Z,7.80
2018-04-27T03:19:25.008Z,7.72
2018-04-27T03:21:52.534Z,7.71
2018-04-27T03:24:20.062Z,7.57
2018-04-27T03:26:47.583Z,7.55
2018-04-27T03:29:15.213Z,7.54
2018-04-27T03:31:42.747Z,7.47
2018-04-27T03:34:10.267Z,7.46
2018-04-27T03:36:38.088Z,7.53
2018-04-27T03:39:05.896Z,7.62
2018-04-27T03:41:33.402Z,7.69
2018-04-27T03:44:00.963Z,7.66
2018-04-27T03:46:28.502Z,7.69
2018-04-27T03:48:56.045Z,7.59
2018-04-27T03:51:23.579Z,7.62
2018-04-27T03:53:52.150Z,7.58
2018-04-27T03:56:19.670Z,7.59
2018-04-27T03:58:47.188Z,7.63
2018-04-27T04:01:26.897Z,7.70
2018-04-27T04:06:57.403Z,7.48
2018-04-27T04:09:24.910Z,7.54
2018-04-27T04:11:52.425Z,7.53
2018-04-27T04:14:20.024Z,7.57
2018-04-27T04:16:47.559Z,7.50
2018-04-27T04:19:15.095Z,7.50
2018-04-27T04:21:42.638Z,7.57
2018-04-27T04:24:10.168Z,7.55
2018-04-27T04:26:37.676Z,7.62
2018-04-27T04:29:05.212Z,7.61
2018-04-27T04:31:32.744Z,7.49
2018-04-27T04:34:00.262Z,7.51
2018-04-27T04:36:27.821Z,7.57
2018-04-27T04:38:55.655Z,7.61
2018-04-27T04:41:23.155Z,7.55
2018-04-27T04:43:50.707Z,7.55
2018-04-27T04:46:18.207Z,7.60
2018-04-27T04:48:45.824Z,7.62
2018-04-27T04:51:13.373Z,7.65
2018-04-27T04:53:41.205Z,7.68
2018-04-27T04:56:08.718Z,7.84
2018-04-27T04:58:36.253Z,7.89
2018-04-27T05:01:03.783Z,7.88
2018-04-27T05:03:31.307Z,7.69
2018-04-27T05:05:58.881Z,7.74
2018-04-27T05:08:26.410Z,7.77
2018-04-27T05:10:54.175Z,7.74
2018-04-27T05:13:21.690Z,7.60
2018-04-27T05:15:49.198Z,7.67
2018-04-27T05:21:29.602Z,7.75
2018-04-27T05:23:57.171Z,7.79
2018-04-27T05:26:24.697Z,7.84
2018-04-27T05:28:52.241Z,7.94
2018-04-27T05:31:23.702Z,7.90
2018-04-27T05:33:51.252Z,7.95
2018-04-27T05:36:18.755Z,8.08
2018-04-27T05:38:46.349Z,8.11
2018-04-27T05:41:15.137Z,8.14
2018-04-27T05:43:42.672Z,8.24
2018-04-27T05:46:10.324Z,8.41
2018-04-27T05:48:37.902Z,8.47
2018-04-27T05:51:05.454Z,8.50
2018-04-27T05:53:33.032Z,8.61
2018-04-27T05:56:00.613Z,8.53
2018-04-27T05:58:28.157Z,8.59
2018-04-27T06:00:55.947Z,8.67
2018-04-27T06:03:23.455Z,8.86
2018-04-27T06:05:50.973Z,8.90
2018-04-27T06:08:18.529Z,9.02
2018-04-27T06:10:46.088Z,8.99
2018-04-27T06:13:13.733Z,9.13
2018-04-27T06:15:41.599Z,9.38
2018-04-27T06:18:09.149Z,9.70
2018-04-27T06:20:36.680Z,9.91
2018-04-27T06:23:04.235Z,10.10
2018-04-27T06:25:32.170Z,10.12
2018-04-27T06:27:59.816Z,10.40
2018-04-27T06:30:27.394Z,10.66
2018-04-27T06:32:55.706Z,11.04
2018-04-27T06:35:23.232Z,11.15
2018-04-27T06:37:50.782Z,11.39
2018-04-27T06:40:18.947Z,11.56
2018-04-27T06:42:48.151Z,11.69
2018-04-27T06:45:15.761Z,11.78
2018-04-27T06:47:43.388Z,11.96
2018-04-27T06:50:12.845Z,12.22
2018-04-27T06:52:40.454Z,12.56
2018-04-27T06:55:08.007Z,12.44
2018-04-27T06:57:35.837Z,12.57
2018-04-27T07:00:05.570Z,12.72
2018-04-27T07:02:35.493Z,12.78
2018-04-27T07:05:03.212Z,12.88
2018-04-27T07:07:40.973Z,12.88
2018-04-27T07:10:08.637Z,12.90
2018-04-27T07:12:36.222Z,12.84
2018-04-27T07:15:03.947Z,12.30
2018-04-27T07:17:31.510Z,12.54
2018-04-27T07:20:00.191Z,12.68
2018-04-27T07:22:28.498Z,12.76
2018-04-27T07:24:56.621Z,12.61
2018-04-27T07:27:24.223Z,12.69
2018-04-27T07:29:52.185Z,12.77
2018-04-27T07:32:20.009Z,12.89
2018-04-27T07:34:47.929Z,12.78
2018-04-27T07:37:15.624Z,12.74
2018-04-27T07:39:43.221Z,12.71
2018-04-27T07:42:10.756Z,12.59
2018-04-27T07:44:38.347Z,12.52
2018-04-27T07:47:06.997Z,12.72
2018-04-27T07:49:34.612Z,12.92
2018-04-27T07:52:02.188Z,13.08
2018-04-27T07:54:29.739Z,13.06
2018-04-27T07:56:57.286Z,13.01
2018-04-27T07:59:25.164Z,13.17
2018-04-27T08:01:52.669Z,13.11
2018-04-27T08:04:20.198Z,13.36
2018-04-27T08:06:48.697Z,13.53
2018-04-27T08:09:16.253Z,13.67
2018-04-27T08:11:43.813Z,13.80
2018-04-27T08:14:11.396Z,13.97
2018-04-27T08:16:38.901Z,14.30
2018-04-27T08:19:06.439Z,14.31
2018-04-27T08:21:34.073Z,14.53
2018-04-27T08:24:01.706Z,14.36
2018-04-27T08:26:29.261Z,14.50
2018-04-27T08:28:59.783Z,14.62
2018-04-27T08:31:27.341Z,14.52
2018-04-27T08:33:54.959Z,15.07
2018-04-27T08:36:22.541Z,15.12
2018-04-27T08:38:50.177Z,15.27
2018-04-27T08:41:17.756Z,15.30
2018-04-27T08:43:45.352Z,15.36
2018-04-27T08:46:12.957Z,15.52
2018-04-27T08:48:40.483Z,15.72
2018-04-27T08:51:08.095Z,15.98
2018-04-27T08:53:35.727Z,15.66
2018-04-27T08:56:03.342Z,16.24
2018-04-27T08:58:30.988Z,16.43
2018-04-27T09:00:58.567Z,16.74
2018-04-27T09:03:26.115Z,17.24
2018-04-27T09:05:54.165Z,17.14
2018-04-27T09:08:22.118Z,17.00
2018-04-27T09:10:49.666Z,16.89
2018-04-27T09:13:17.203Z,16.99
2018-04-27T09:15:44.724Z,16.45
2018-04-27T09:18:12.290Z,16.52
2018-04-27T09:20:39.839Z,16.81
2018-04-27T09:23:07.366Z,17.01
2018-04-27T09:25:34.922Z,16.89
2018-04-27T09:28:02.466Z,17.27
2018-04-27T09:30:29.994Z,17.39
2018-04-27T09:32:57.539Z,17.90
2018-04-27T09:35:25.491Z,17.53
2018-04-27T09:37:53.001Z,18.05
2018-04-27T09:40:20.551Z,17.33
2018-04-27T09:42:48.155Z,17.22
2018-04-27T09:45:15.744Z,17.51
2018-04-27T09:47:43.287Z,17.48
2018-04-27T09:50:10.864Z,17.78
2018-04-27T09:52:38.473Z,17.65
2018-04-27T09:55:06.259Z,17.30
2018-04-27T09:57:33.850Z,16.66
2018-04-27T10:00:01.692Z,16.60
2018-04-27T10:02:29.226Z,16.55
2018-04-27T10:04:56.957Z,16.56
2018-04-27T10:07:24.504Z,16.27
2018-04-27T10:09:52.167Z,16.15
2018-04-27T10:12:19.758Z,15.75
2018-04-27T10:14:47.332Z,16.30
2018-04-27T10:17:14.918Z,16.96
2018-04-27T10:19:42.508Z,17.39
2018-04-27T10:22:10.135Z,17.08
2018-04-27T10:24:37.728Z,17.13
2018-04-27T10:27:05.341Z,16.99
2018-04-27T10:29:32.879Z,17.11
2018-04-27T10:32:00.916Z,17.10
2018-04-27T10:34:28.957Z,18.19
2018-04-27T10:36:56.522Z,18.44
2018-04-27T10:39:24.279Z,18.09
2018-04-27T10:41:51.910Z,18.20
2018-04-27T10:44:19.573Z,18.65
2018-04-27T10:46:48.796Z,18.59
2018-04-27T10:49:16.331Z,18.05
2018-04-27T10:51:43.874Z,17.90
2018-04-27T10:54:11.417Z,18.10
2018-04-27T10:56:38.979Z,17.86
2018-04-27T10:59:06.521Z,17.41
2018-04-27T11:01:34.058Z,17.81
2018-04-27T11:04:01.619Z,17.67
2018-04-27T11:06:29.149Z,17.51
2018-04-27T11:08:56.673Z,17.02
2018-04-27T11:11:24.242Z,17.15
2018-04-27T11:13:51.816Z,17.00
2018-04-27T11:16:19.400Z,17.66
2018-04-27T11:18:46.984Z,18.34
2018-04-27T11:21:14.503Z,18.42
2018-04-27T11:23:42.433Z,17.84
2018-04-27T11:26:09.999Z,17.05
2018-04-27T11:28:37.583Z,17.51
2018-04-27T11:31:05.081Z,18.31
2018-04-27T11:33:32.677Z,18.51
2018-04-27T11:36:00.206Z,18.13
2018-04-27T11:38:27.730Z,18.06
2018-04-27T11:40:55.293Z,19.12
2018-04-27T11:43:22.815Z,20.76
2018-04-27T11:45:50.345Z,21.49
2018-04-27T11:48:17.917Z,22.07
2018-04-27T11:50:45.683Z,22.31
2018-04-27T11:53:13.208Z,20.40
2018-04-27T11:55:40.795Z,20.02
2018-04-27T11:58:08.347Z,21.16
2018-04-27T12:00:35.878Z,21.67
2018-04-27T12:03:03.710Z,22.00
2018-04-27T12:05:31.269Z,22.40
2018-04-27T12:08:00.019Z,21.34
2018-04-27T12:10:27.615Z,20.77
2018-04-27T12:12:55.177Z,21.88
2018-04-27T12:15:22.765Z,22.67
2018-04-27T12:17:50.751Z,23.72
2018-04-27T12:20:18.290Z,24.29
2018-04-27T12:22:47.100Z,24.04
2018-04-27T12:25:14.705Z,23.31
2018-04-27T12:27:44.044Z,23.99
2018-04-27T12:30:11.640Z,23.09
2018-04-27T12:32:39.558Z,22.05
2018-04-27T12:35:08.088Z,21.58
2018-04-27T12:37:35.912Z,22.97
2018-04-27T12:40:03.459Z,22.37
2018-04-27T12:42:31.620Z,20.89
2018-04-27T12:44:59.444Z,21.13
2018-04-27T12:47:26.953Z,21.63
2018-04-27T12:49:54.749Z,22.30
2018-04-27T12:52:22.611Z,22.31
2018-04-27T12:54:50.211Z,21.10
2018-04-27T12:57:17.738Z,20.22
2018-04-27T12:59:46.633Z,19.45
2018-04-27T13:02:15.566Z,19.43
2018-04-27T13:04:43.124Z,20.86
2018-04-27T13:07:13.222Z,21.46
2018-04-27T13:09:40.751Z,21.81
2018-04-27T13:12:09.700Z,21.05
2018-04-27T13:14:37.256Z,20.04
2018-04-27T13:17:06.055Z,18.94
2018-04-27T13:19:33.574Z,18.55
2018-04-27T13:22:01.121Z,18.51
2018-04-27T13:24:28.729Z,19.32
2018-04-27T13:26:56.657Z,19.53
2018-04-27T13:29:24.204Z,19.45
2018-04-27T13:31:51.736Z,19.17
2018-04-27T13:34:19.306Z,18.78
2018-04-27T13:36:46.837Z,18.47
2018-04-27T13:39:15.688Z,18.12
2018-04-27T13:41:43.983Z,17.69
2018-04-27T13:44:11.528Z,17.73
2018-04-27T13:46:39.099Z,17.92
2018-04-27T13:49:07.849Z,18.13
2018-04-27T13:51:35.501Z,18.06
2018-04-27T13:54:03.576Z,18.01
2018-04-27T13:56:31.451Z,18.28
2018-04-27T13:59:02.174Z,18.24
2018-04-27T14:01:30.243Z,18.16
2018-04-27T14:03:57.864Z,18.62
2018-04-27T14:06:25.386Z,18.90
2018-04-27T14:08:55.867Z,19.22
2018-04-27T14:11:23.405Z,19.11
2018-04-27T14:13:50.928Z,18.63
2018-04-27T14:16:18.969Z,18.07
2018-04-27T14:18:48.595Z,18.15
2018-04-27T14:21:16.136Z,18.17
2018-04-27T14:23:43.694Z,18.22
2018-04-27T14:26:11.224Z,18.41
2018-04-27T14:28:38.754Z,18.03
2018-04-27T14:31:06.660Z,18.33
2018-04-27T14:33:35.756Z,18.51
2018-04-27T14:36:03.608Z,18.68
2018-04-27T14:38:31.179Z,18.63
2018-04-27T14:40:58.772Z,18.38
2018-04-27T14:43:26.238Z,18.15
2018-04-27T14:45:53.795Z,17.97
2018-04-27T14:48:21.390Z,17.93
2018-04-27T14:50:48.899Z,17.94
2018-04-27T14:53:16.457Z,17.75
2018-04-27T14:55:44.009Z,17.92
2018-04-27T14:58:11.526Z,17.99
2018-04-27T15:00:39.323Z,18.01
2018-04-27T15:03:06.870Z,17.92
2018-04-27T15:05:34.432Z,17.78
2018-04-27T15:08:01.982Z,17.75
2018-04-27T15:10:29.552Z,17.46
2018-04-27T15:12:57.327Z,17.53
2018-04-27T15:15:24.984Z,17.55
2018-04-27T15:17:52.528Z,17.52
2018-04-27T15:20:20.034Z,17.41
2018-04-27T15:22:47.587Z,17.42
2018-04-27T15:25:15.208Z,17.24
2018-04-27T15:27:43.046Z,17.17
2018-04-27T15:30:10.590Z,17.40
2018-04-27T15:32:38.124Z,17.56
2018-04-27T15:35:05.667Z,17.47
2018-04-27T15:37:33.221Z,17.44
2018-04-27T15:40:01.914Z,17.61
2018-04-27T15:42:29.501Z,17.52
2018-04-27T15:44:57.099Z,17.34
2018-04-27T15:47:24.650Z,17.17
2018-04-27T15:49:52.280Z,17.08
2018-04-27T15:52:20.139Z,17.09
2018-04-27T15:54:47.649Z,17.13
2018-04-27T15:57:15.215Z,17.30
2018-04-27T15:59:43.127Z,17.32
2018-04-27T16:02:11.763Z,17.28
2018-04-27T16:04:39.316Z,17.21
2018-04-27T16:07:06.899Z,17.34
2018-04-27T16:09:35.284Z,17.45
2018-04-27T16:12:02.766Z,17.53
2018-04-27T16:14:30.643Z,17.67
2018-04-27T16:16:58.169Z,17.52
2018-04-27T16:19:25.691Z,17.31
2018-04-27T16:21:53.282Z,17.34
2018-04-27T16:24:21.778Z,17.20
2018-04-27T16:26:50.249Z,17.13
2018-04-27T16:29:20.817Z,17.14
2018-04-27T16:31:50.049Z,17.05
2018-04-27T16:34:17.578Z,17.16
2018-04-27T16:36:45.121Z,17.20
2018-04-27T16:39:12.667Z,17.27
2018-04-27T16:41:40.180Z,17.27
2018-04-27T16:44:07.776Z,17.24
2018-04-27T16:46:35.352Z,17.26
2018-04-27T16:49:04.477Z,17.25
2018-04-27T16:51:32.710Z,17.30
2018-04-27T16:54:00.517Z,17.22
2018-04-27T16:56:28.045Z,16.97
2018-04-27T16:58:55.607Z,16.98
2018-04-27T17:01:24.000Z,16.85
2018-04-27T17:03:51.734Z,16.84
2018-04-27T17:06:19.335Z,16.75
2018-04-27T17:08:49.238Z,16.81
2018-04-27T17:11:16.748Z,16.85
2018-04-27T17:13:44.328Z,16.87
2018-04-27T17:16:11.884Z,16.91
2018-04-27T17:18:39.452Z,16.91
2018-04-27T17:21:08.613Z,16.91
2018-04-27T17:23:37.655Z,16.81
2018-04-27T17:26:05.391Z,16.75
2018-04-27T17:28:32.989Z,16.71
2018-04-27T17:31:00.536Z,16.60
2018-04-27T17:33:28.298Z,16.58
2018-04-27T17:35:55.845Z,16.55
2018-04-27T17:38:23.554Z,16.53
2018-04-27T17:40:51.082Z,16.44
2018-04-27T17:43:20.919Z,16.44
2018-04-27T17:45:48.524Z,16.44
2018-04-27T17:48:16.207Z,16.35
2018-04-27T17:50:43.849Z,16.25
2018-04-27T17:53:11.494Z,16.22
2018-04-27T17:55:39.107Z,16.21
2018-04-27T17:58:06.592Z,16.17
2018-04-27T18:00:35.566Z,16.12
2018-04-27T18:03:03.137Z,16.08
2018-04-27T18:05:30.686Z,16.01
2018-04-27T18:08:02.220Z,15.96
2018-04-27T18:10:29.784Z,15.91
2018-04-27T18:12:57.365Z,15.87
2018-04-27T18:15:24.883Z,15.84
2018-04-27T18:17:55.139Z,15.80
2018-04-27T18:20:22.756Z,15.76
2018-04-27T18:22:50.357Z,15.75
2018-04-27T18:25:17.951Z,15.71
2018-04-27T18:27:45.778Z,15.69
2018-04-27T18:30:13.288Z,15.71
2018-04-27T18:32:41.233Z,15.69
2018-04-27T18:35:08.770Z,15.65
2018-04-27T18:37:36.344Z,15.62
2018-04-27T18:40:03.874Z,15.59
2018-04-27T18:42:31.538Z,15.56
2018-04-27T18:44:59.213Z,15.54
2018-04-27T18:47:26.870Z,15.50
2018-04-27T18:49:54.426Z,15.48
2018-04-27T18:52:37.458Z,15.47
2018-04-27T18:55:04.991Z,15.43
2018-04-27T18:57:32.521Z,15.39
2018-04-27T19:00:00.050Z,15.42
2018-04-27T19:02:32.587Z,15.39
2018-04-27T19:05:00.579Z,15.36
2018-04-27T19:07:28.334Z,15.34
2018-04-27T19:09:59.233Z,15.32
2018-04-27T19:12:30.212Z,15.29
2018-04-27T19:14:57.783Z,15.28
2018-04-27T19:17:25.393Z,15.26
2018-04-27T19:19:53.027Z,15.25
2018-04-27T19:22:20.797Z,15.23
2018-04-27T19:24:48.315Z,15.20
2018-04-27T19:27:15.918Z,15.17
2018-04-27T19:29:43.447Z,15.16
2018-04-27T19:32:10.954Z,15.13
2018-04-27T19:34:38.539Z,15.11
2018-04-27T19:37:06.076Z,15.08
2018-04-27T19:39:33.586Z,15.05
2018-04-27T19:42:01.144Z,15.03
2018-04-27T19:44:28.704Z,15.02
2018-04-27T19:46:56.218Z,14.99
2018-04-27T19:49:24.214Z,15.03
2018-04-27T19:51:51.770Z,15.00
2018-04-27T19:54:19.293Z,15.03
2018-04-27T19:56:46.818Z,15.10
2018-04-27T19:59:14.352Z,15.03
2018-04-27T20:01:41.869Z,15.01
2018-04-27T20:04:09.488Z,14.95
2018-04-27T20:06:37.093Z,14.88
2018-04-27T20:09:04.702Z,14.89
2018-04-27T20:11:32.296Z,14.85
2018-04-27T20:13:59.857Z,14.81
2018-04-27T20:16:37.147Z,14.82
2018-04-27T20:19:07.459Z,14.74
2018-04-27T20:21:35.251Z,14.71
2018-04-27T20:24:06.553Z,14.68
2018-04-27T20:26:34.251Z,14.63
2018-04-27T20:29:02.591Z,14.59
2018-04-27T20:31:30.507Z,14.58
2018-04-27T20:33:58.075Z,14.58
2018-04-27T20:36:25.609Z,14.61
2018-04-27T20:38:53.226Z,14.54
2018-04-27T20:41:20.730Z,14.54
2018-04-27T20:43:48.242Z,14.49
2018-04-27T20:46:18.564Z,14.45
2018-04-27T20:48:46.149Z,14.40
2018-04-27T20:51:13.716Z,14.37
2018-04-27T20:53:42.812Z,14.35
2018-04-27T20:56:10.371Z,14.34
2018-04-27T20:58:37.901Z,14.35
2018-04-27T21:01:05.431Z,14.33
2018-04-27T21:03:32.985Z,14.26
2018-04-27T21:06:00.516Z,14.22
2018-04-27T21:08:28.054Z,14.20
2018-04-27T21:10:55.647Z,14.18
2018-04-27T21:13:23.149Z,14.15
2018-04-27T21:15:50.699Z,14.17
2018-04-27T21:18:18.210Z,14.11
2018-04-27T21:20:45.716Z,14.16
2018-04-27T21:23:13.255Z,14.11
2018-04-27T21:25:40.781Z,14.07
2018-04-27T21:28:21.725Z,14.12
2018-04-27T21:30:49.220Z,14.09
2018-04-27T21:33:16.789Z,14.01
2018-04-27T21:35:53.849Z,13.99
2018-04-27T21:38:42.925Z,14.00
2018-04-27T21:41:17.882Z,14.02
2018-04-27T21:43:45.721Z,14.00
2018-04-27T21:46:13.228Z,14.00
2018-04-27T21:48:40.809Z,13.95
2018-04-27T21:51:08.371Z,13.87
2018-04-27T21:53:35.924Z,13.86
2018-04-27T21:56:03.458Z,13.90
2018-04-27T21:58:30.953Z,13.86
2018-04-27T22:00:58.535Z,13.83
2018-04-27T22:03:26.085Z,13.79
2018-04-27T22:05:57.279Z,13.81
2018-04-27T22:08:41.357Z,13.79
2018-04-27T22:11:11.872Z,13.70
2018-04-27T22:13:39.393Z,13.75
2018-04-27T22:16:13.141Z,13.73
2018-04-27T22:18:40.694Z,13.70
2018-04-27T22:21:08.515Z,13.65
2018-04-27T22:23:36.823Z,13.66
2018-04-27T22:26:05.301Z,13.62
2018-04-27T22:28:38.684Z,13.58
2018-04-27T22:31:06.202Z,13.64
2018-04-27T22:33:40.639Z,13.58
2018-04-27T22:36:15.798Z,13.53
2018-04-27T22:38:43.323Z,13.48
2018-04-27T22:41:12.572Z,13.45
2018-04-27T22:43:40.168Z,13.45
2018-04-27T22:46:27.445Z,13.50
2018-04-27T22:48:59.242Z,13.51
2018-04-27T22:51:44.363Z,13.42
2018-04-27T22:57:19.692Z,13.40
2018-04-27T22:59:49.846Z,13.40
2018-04-27T23:02:21.029Z,13.36
2018-04-27T23:05:00.397Z,13.38
2018-04-27T23:07:35.877Z,13.35
2018-04-27T23:10:03.395Z,13.30
2018-04-27T23:12:36.426Z,13.35
2018-04-27T23:15:04.866Z,13.30
2018-04-27T23:17:32.788Z,13.21
2018-04-27T23:20:03.174Z,13.15
2018-04-27T23:22:40.763Z,13.11
2018-04-27T23:28:03.427Z,13.13
2018-04-27T23:30:32.828Z,13.10
2018-04-27T23:33:00.366Z,13.06
2018-04-27T23:35:27.893Z,13.01
2018-04-27T23:37:55.903Z,13.03
2018-04-27T23:40:23.438Z,13.00
2018-04-27T23:42:51.059Z,12.94
2018-04-27T23:45:18.629Z,13.00
2018-04-27T23:47:46.135Z,12.97
2018-04-27T23:50:14.743Z,12.95
2018-04-27T23:52:42.296Z,12.92
2018-04-27T23:55:09.815Z,12.89
2018-04-27T23:57:37.311Z,12.83
